sensor_id;sensor_type;location;lat;lon;timestamp;temperature;humidity
4183;DHT22;2105;52.300;9.182;2023-08-20T00:00:00;21.80;99.90
4183;DHT22;2105;52.300;9.182;2023-08-20T00:02:32;21.80;99.90
4183;DHT22;2105;52.300;9.182;2023-08-20T00:05:01;21.80;1.00
4183;DHT22;2105;52.300;9.182;2023-08-20T00:07:29;21.70;1.00
4183;DHT22;2105;52.300;9.182;2023-08-20T00:09:56;21.80;1.00
4183;DHT22;2105;52.300;9.182;2023-08-20T00:12:23;21.70;1.00
4183;DHT22;2105;52.300;9.182;2023-08-20T00:14:52;21.70;1.00
4183;DHT22;2105;52.300;9.182;2023-08-20T00:17:22;21.70;12.70
4183;DHT22;2105;52.300;9.182;2023-08-20T00:19:53;21.70;99.90
4183;DHT22;2105;52.300;9.182;2023-08-20T00:22:21;21.60;99.90
4183;DHT22;2105;52.300;9.182;2023-08-20T00:24:49;21.60;1.00
4183;DHT22;2105;52.300;9.182;2023-08-20T00:27:17;21.50;1.00
4183;DHT22;2105;52.300;9.182;2023-08-20T00:29:43;21.50;1.00
4183;DHT22;2105;52.300;9.182;2023-08-20T00:32:10;21.50;99.90
4183;DHT22;2105;52.300;9.182;2023-08-20T00:34:38;21.60;99.90
4183;DHT22;2105;52.300;9.182;2023-08-20T00:37:05;21.70;1.00
4183;DHT22;2105;52.300;9.182;2023-08-20T00:39:32;21.70;1.00
4183;DHT22;2105;52.300;9.182;2023-08-20T00:41:59;21.60;99.90
4183;DHT22;2105;52.300;9.182;2023-08-20T00:44:25;21.60;53.80
4183;DHT22;2105;52.300;9.182;2023-08-20T00:46:53;21.50;99.90
4183;DHT22;2105;52.300;9.182;2023-08-20T00:49:20;21.40;1.00
4183;DHT22;2105;52.300;9.182;2023-08-20T00:51:49;21.50;99.90
4183;DHT22;2105;52.300;9.182;2023-08-20T00:54:15;21.50;1.00
4183;DHT22;2105;52.300;9.182;2023-08-20T00:56:43;21.50;1.00
4183;DHT22;2105;52.300;9.182;2023-08-20T00:59:10;21.20;1.00
4183;DHT22;2105;52.300;9.182;2023-08-20T01:01:37;21.10;1.00
4183;DHT22;2105;52.300;9.182;2023-08-20T01:04:04;21.00;99.90
4183;DHT22;2105;52.300;9.182;2023-08-20T01:06:39;20.90;1.00
4183;DHT22;2105;52.300;9.182;2023-08-20T01:09:21;20.70;1.00
4183;DHT22;2105;52.300;9.182;2023-08-20T01:11:55;20.70;1.00
4183;DHT22;2105;52.300;9.182;2023-08-20T01:14:22;20.60;1.00
4183;DHT22;2105;52.300;9.182;2023-08-20T01:16:49;20.50;1.00
4183;DHT22;2105;52.300;9.182;2023-08-20T01:19:17;20.30;99.90
4183;DHT22;2105;52.300;9.182;2023-08-20T01:21:50;20.20;99.90
4183;DHT22;2105;52.300;9.182;2023-08-20T01:24:34;20.00;99.90
4183;DHT22;2105;52.300;9.182;2023-08-20T01:27:16;19.90;1.00
4183;DHT22;2105;52.300;9.182;2023-08-20T01:29:47;19.90;99.90
4183;DHT22;2105;52.300;9.182;2023-08-20T01:32:15;19.80;99.90
4183;DHT22;2105;52.300;9.182;2023-08-20T01:34:42;19.60;1.00
4183;DHT22;2105;52.300;9.182;2023-08-20T01:37:11;19.40;99.90
4183;DHT22;2105;52.300;9.182;2023-08-20T01:39:37;19.30;1.00
4183;DHT22;2105;52.300;9.182;2023-08-20T01:42:05;19.20;1.00
4183;DHT22;2105;52.300;9.182;2023-08-20T01:44:32;19.20;1.00
4183;DHT22;2105;52.300;9.182;2023-08-20T01:47:00;19.10;1.00
4183;DHT22;2105;52.300;9.182;2023-08-20T01:49:27;19.00;41.20
4183;DHT22;2105;52.300;9.182;2023-08-20T01:51:54;18.90;1.00
4183;DHT22;2105;52.300;9.182;2023-08-20T01:54:21;18.90;1.00
4183;DHT22;2105;52.300;9.182;2023-08-20T01:56:47;18.70;1.00
4183;DHT22;2105;52.300;9.182;2023-08-20T01:59:14;18.50;99.90
4183;DHT22;2105;52.300;9.182;2023-08-20T02:01:41;18.50;99.90
4183;DHT22;2105;52.300;9.182;2023-08-20T02:04:09;18.50;99.90
4183;DHT22;2105;52.300;9.182;2023-08-20T02:06:36;18.50;99.90
4183;DHT22;2105;52.300;9.182;2023-08-20T02:09:03;18.60;99.90
4183;DHT22;2105;52.300;9.182;2023-08-20T02:11:30;18.50;99.90
4183;DHT22;2105;52.300;9.182;2023-08-20T02:14:00;18.30;99.90
4183;DHT22;2105;52.300;9.182;2023-08-20T02:16:27;18.10;99.90
4183;DHT22;2105;52.300;9.182;2023-08-20T02:18:54;18.30;99.90
4183;DHT22;2105;52.300;9.182;2023-08-20T02:21:23;18.30;99.90
4183;DHT22;2105;52.300;9.182;2023-08-20T02:23:49;18.30;99.90
4183;DHT22;2105;52.300;9.182;2023-08-20T02:26:16;18.30;99.90
4183;DHT22;2105;52.300;9.182;2023-08-20T02:28:43;18.20;99.90
4183;DHT22;2105;52.300;9.182;2023-08-20T02:31:09;18.20;99.90
4183;DHT22;2105;52.300;9.182;2023-08-20T02:33:36;18.20;99.90
4183;DHT22;2105;52.300;9.182;2023-08-20T02:36:03;18.20;99.90
4183;DHT22;2105;52.300;9.182;2023-08-20T02:38:32;18.10;99.90
4183;DHT22;2105;52.300;9.182;2023-08-20T02:40:58;18.10;99.90
4183;DHT22;2105;52.300;9.182;2023-08-20T02:43:25;18.10;99.90
4183;DHT22;2105;52.300;9.182;2023-08-20T02:45:52;18.10;99.90
4183;DHT22;2105;52.300;9.182;2023-08-20T02:48:19;18.20;99.90
4183;DHT22;2105;52.300;9.182;2023-08-20T02:50:45;18.20;99.90
4183;DHT22;2105;52.300;9.182;2023-08-20T02:53:12;18.10;99.90
4183;DHT22;2105;52.300;9.182;2023-08-20T02:55:40;18.00;99.90
4183;DHT22;2105;52.300;9.182;2023-08-20T02:58:07;17.90;99.90
4183;DHT22;2105;52.300;9.182;2023-08-20T03:00:34;17.80;99.90
4183;DHT22;2105;52.300;9.182;2023-08-20T03:03:01;17.70;99.90
4183;DHT22;2105;52.300;9.182;2023-08-20T03:05:31;17.60;99.90
4183;DHT22;2105;52.300;9.182;2023-08-20T03:07:58;17.50;99.90
4183;DHT22;2105;52.300;9.182;2023-08-20T03:10:25;17.40;99.90
4183;DHT22;2105;52.300;9.182;2023-08-20T03:12:53;17.30;99.90
4183;DHT22;2105;52.300;9.182;2023-08-20T03:15:20;17.40;99.90
4183;DHT22;2105;52.300;9.182;2023-08-20T03:17:47;17.30;99.90
4183;DHT22;2105;52.300;9.182;2023-08-20T03:20:14;17.40;99.90
4183;DHT22;2105;52.300;9.182;2023-08-20T03:22:40;17.40;99.90
4183;DHT22;2105;52.300;9.182;2023-08-20T03:25:08;17.40;99.90
4183;DHT22;2105;52.300;9.182;2023-08-20T03:27:35;17.30;99.90
4183;DHT22;2105;52.300;9.182;2023-08-20T03:30:04;17.30;99.90
4183;DHT22;2105;52.300;9.182;2023-08-20T03:32:32;17.30;99.90
4183;DHT22;2105;52.300;9.182;2023-08-20T03:34:59;17.30;99.90
4183;DHT22;2105;52.300;9.182;2023-08-20T03:37:27;17.40;99.90
4183;DHT22;2105;52.300;9.182;2023-08-20T03:39:53;17.40;99.90
4183;DHT22;2105;52.300;9.182;2023-08-20T03:42:20;17.50;99.90
4183;DHT22;2105;52.300;9.182;2023-08-20T03:44:47;17.50;99.90
4183;DHT22;2105;52.300;9.182;2023-08-20T03:47:15;17.50;99.90
4183;DHT22;2105;52.300;9.182;2023-08-20T03:49:45;17.60;99.90
4183;DHT22;2105;52.300;9.182;2023-08-20T03:52:12;17.60;99.90
4183;DHT22;2105;52.300;9.182;2023-08-20T03:54:39;17.60;99.90
4183;DHT22;2105;52.300;9.182;2023-08-20T03:57:05;17.60;99.90
4183;DHT22;2105;52.300;9.182;2023-08-20T03:59:32;17.50;99.90
4183;DHT22;2105;52.300;9.182;2023-08-20T04:01:59;17.40;99.90
4183;DHT22;2105;52.300;9.182;2023-08-20T04:04:27;17.40;99.90
4183;DHT22;2105;52.300;9.182;2023-08-20T04:06:54;17.40;99.90
4183;DHT22;2105;52.300;9.182;2023-08-20T04:09:21;17.50;99.90
4183;DHT22;2105;52.300;9.182;2023-08-20T04:11:48;17.50;99.90
4183;DHT22;2105;52.300;9.182;2023-08-20T04:14:14;17.50;99.90
4183;DHT22;2105;52.300;9.182;2023-08-20T04:16:42;17.50;99.90
4183;DHT22;2105;52.300;9.182;2023-08-20T04:19:08;17.40;99.90
4183;DHT22;2105;52.300;9.182;2023-08-20T04:21:36;17.40;99.90
4183;DHT22;2105;52.300;9.182;2023-08-20T04:24:04;17.40;99.90
4183;DHT22;2105;52.300;9.182;2023-08-20T04:26:31;17.40;99.90
4183;DHT22;2105;52.300;9.182;2023-08-20T04:28:57;17.50;99.90
4183;DHT22;2105;52.300;9.182;2023-08-20T04:31:24;17.50;11.00
4183;DHT22;2105;52.300;9.182;2023-08-20T04:33:51;17.40;1.00
4183;DHT22;2105;52.300;9.182;2023-08-20T04:36:17;17.40;1.00
4183;DHT22;2105;52.300;9.182;2023-08-20T04:38:45;17.40;1.00
4183;DHT22;2105;52.300;9.182;2023-08-20T04:41:12;17.40;1.00
4183;DHT22;2105;52.300;9.182;2023-08-20T04:43:39;17.40;1.00
4183;DHT22;2105;52.300;9.182;2023-08-20T04:46:05;17.40;92.50
4183;DHT22;2105;52.300;9.182;2023-08-20T04:48:33;17.50;99.90
4183;DHT22;2105;52.300;9.182;2023-08-20T04:51:00;17.50;99.90
4183;DHT22;2105;52.300;9.182;2023-08-20T04:53:27;17.60;29.20
4183;DHT22;2105;52.300;9.182;2023-08-20T04:55:57;17.50;23.20
4183;DHT22;2105;52.300;9.182;2023-08-20T04:58:24;17.40;96.20
4183;DHT22;2105;52.300;9.182;2023-08-20T05:00:51;17.70;1.00
4183;DHT22;2105;52.300;9.182;2023-08-20T05:03:18;18.00;99.90
4183;DHT22;2105;52.300;9.182;2023-08-20T05:05:48;18.30;9.90
4183;DHT22;2105;52.300;9.182;2023-08-20T05:08:15;18.40;1.00
4183;DHT22;2105;52.300;9.182;2023-08-20T05:10:42;18.50;99.90
4183;DHT22;2105;52.300;9.182;2023-08-20T05:13:10;18.60;1.00
4183;DHT22;2105;52.300;9.182;2023-08-20T05:15:37;18.60;1.00
4183;DHT22;2105;52.300;9.182;2023-08-20T05:18:04;18.70;99.90
4183;DHT22;2105;52.300;9.182;2023-08-20T05:20:30;18.70;99.90
4183;DHT22;2105;52.300;9.182;2023-08-20T05:22:57;18.70;1.00
4183;DHT22;2105;52.300;9.182;2023-08-20T05:25:24;18.70;1.00
4183;DHT22;2105;52.300;9.182;2023-08-20T05:27:51;18.80;1.00
4183;DHT22;2105;52.300;9.182;2023-08-20T05:30:19;18.90;50.20
4183;DHT22;2105;52.300;9.182;2023-08-20T05:32:46;18.90;99.90
4183;DHT22;2105;52.300;9.182;2023-08-20T05:35:12;18.90;99.90
4183;DHT22;2105;52.300;9.182;2023-08-20T05:37:39;19.10;1.00
4183;DHT22;2105;52.300;9.182;2023-08-20T05:40:07;19.20;99.90
4183;DHT22;2105;52.300;9.182;2023-08-20T05:42:35;19.40;1.00
4183;DHT22;2105;52.300;9.182;2023-08-20T05:45:02;19.50;1.00
4183;DHT22;2105;52.300;9.182;2023-08-20T05:47:30;19.60;1.00
4183;DHT22;2105;52.300;9.182;2023-08-20T05:49:57;19.70;1.00
4183;DHT22;2105;52.300;9.182;2023-08-20T05:52:23;19.90;99.90
4183;DHT22;2105;52.300;9.182;2023-08-20T05:54:50;20.00;99.90
4183;DHT22;2105;52.300;9.182;2023-08-20T05:57:17;20.20;99.90
4183;DHT22;2105;52.300;9.182;2023-08-20T05:59:44;20.40;1.00
4183;DHT22;2105;52.300;9.182;2023-08-20T06:02:14;20.50;1.00
4183;DHT22;2105;52.300;9.182;2023-08-20T06:04:43;20.60;1.00
4183;DHT22;2105;52.300;9.182;2023-08-20T06:07:10;20.70;99.90
4183;DHT22;2105;52.300;9.182;2023-08-20T06:09:36;20.80;1.00
4183;DHT22;2105;52.300;9.182;2023-08-20T06:12:03;20.90;1.00
4183;DHT22;2105;52.300;9.182;2023-08-20T06:14:30;21.00;99.90
4183;DHT22;2105;52.300;9.182;2023-08-20T06:16:57;21.00;99.90
4183;DHT22;2105;52.300;9.182;2023-08-20T06:19:23;21.00;99.90
4183;DHT22;2105;52.300;9.182;2023-08-20T06:21:51;21.10;26.90
4183;DHT22;2105;52.300;9.182;2023-08-20T06:24:18;21.20;1.00
4183;DHT22;2105;52.300;9.182;2023-08-20T06:26:45;21.30;1.00
4183;DHT22;2105;52.300;9.182;2023-08-20T06:29:11;21.40;33.90
4183;DHT22;2105;52.300;9.182;2023-08-20T06:31:38;21.40;47.60
4183;DHT22;2105;52.300;9.182;2023-08-20T06:34:05;21.50;99.90
4183;DHT22;2105;52.300;9.182;2023-08-20T06:36:31;21.90;1.00
4183;DHT22;2105;52.300;9.182;2023-08-20T06:39:00;22.60;99.90
4183;DHT22;2105;52.300;9.182;2023-08-20T06:41:26;23.50;1.00
4183;DHT22;2105;52.300;9.182;2023-08-20T06:43:53;23.90;99.90
4183;DHT22;2105;52.300;9.182;2023-08-20T06:46:20;24.20;1.00
4183;DHT22;2105;52.300;9.182;2023-08-20T06:48:46;24.50;1.00
4183;DHT22;2105;52.300;9.182;2023-08-20T06:51:13;24.60;99.90
4183;DHT22;2105;52.300;9.182;2023-08-20T06:53:40;24.90;1.00
4183;DHT22;2105;52.300;9.182;2023-08-20T06:56:09;25.70;1.00
4183;DHT22;2105;52.300;9.182;2023-08-20T06:58:37;26.50;1.00
4183;DHT22;2105;52.300;9.182;2023-08-20T07:01:04;27.60;99.90
4183;DHT22;2105;52.300;9.182;2023-08-20T07:03:33;28.30;99.90
4183;DHT22;2105;52.300;9.182;2023-08-20T07:06:01;29.30;99.90
4183;DHT22;2105;52.300;9.182;2023-08-20T07:08:27;29.90;99.90
4183;DHT22;2105;52.300;9.182;2023-08-20T07:10:54;30.40;99.90
4183;DHT22;2105;52.300;9.182;2023-08-20T07:13:23;30.80;99.90
4183;DHT22;2105;52.300;9.182;2023-08-20T07:15:49;31.40;99.90
4183;DHT22;2105;52.300;9.182;2023-08-20T07:18:16;31.70;99.90
4183;DHT22;2105;52.300;9.182;2023-08-20T07:20:43;32.10;99.90
4183;DHT22;2105;52.300;9.182;2023-08-20T07:23:10;32.50;99.90
4183;DHT22;2105;52.300;9.182;2023-08-20T07:25:38;32.90;99.90
4183;DHT22;2105;52.300;9.182;2023-08-20T07:28:05;32.70;99.90
4183;DHT22;2105;52.300;9.182;2023-08-20T07:30:33;32.90;99.90
4183;DHT22;2105;52.300;9.182;2023-08-20T07:33:00;32.50;99.90
4183;DHT22;2105;52.300;9.182;2023-08-20T07:35:28;32.20;99.90
4183;DHT22;2105;52.300;9.182;2023-08-20T07:37:55;31.90;99.90
4183;DHT22;2105;52.300;9.182;2023-08-20T07:40:21;30.40;99.90
4183;DHT22;2105;52.300;9.182;2023-08-20T07:42:49;29.70;99.90
4183;DHT22;2105;52.300;9.182;2023-08-20T07:45:16;29.30;99.90
4183;DHT22;2105;52.300;9.182;2023-08-20T07:47:44;28.60;99.90
4183;DHT22;2105;52.300;9.182;2023-08-20T07:50:11;28.40;99.90
4183;DHT22;2105;52.300;9.182;2023-08-20T07:52:38;28.60;99.90
4183;DHT22;2105;52.300;9.182;2023-08-20T07:55:06;27.90;99.90
4183;DHT22;2105;52.300;9.182;2023-08-20T07:57:33;27.50;99.90
4183;DHT22;2105;52.300;9.182;2023-08-20T07:59:59;28.00;99.90
4183;DHT22;2105;52.300;9.182;2023-08-20T08:02:29;27.30;99.90
4183;DHT22;2105;52.300;9.182;2023-08-20T08:04:57;27.30;99.90
4183;DHT22;2105;52.300;9.182;2023-08-20T08:07:24;27.00;99.90
4183;DHT22;2105;52.300;9.182;2023-08-20T08:09:51;26.40;99.90
4183;DHT22;2105;52.300;9.182;2023-08-20T08:12:17;25.90;1.00
4183;DHT22;2105;52.300;9.182;2023-08-20T08:14:44;25.70;1.00
4183;DHT22;2105;52.300;9.182;2023-08-20T08:17:11;25.50;1.00
4183;DHT22;2105;52.300;9.182;2023-08-20T08:19:37;25.50;1.00
4183;DHT22;2105;52.300;9.182;2023-08-20T08:22:06;25.70;1.00
4183;DHT22;2105;52.300;9.182;2023-08-20T08:24:32;25.80;1.00
4183;DHT22;2105;52.300;9.182;2023-08-20T08:26:59;25.70;1.00
4183;DHT22;2105;52.300;9.182;2023-08-20T08:29:26;25.70;1.00
4183;DHT22;2105;52.300;9.182;2023-08-20T08:31:52;25.50;1.00
4183;DHT22;2105;52.300;9.182;2023-08-20T08:34:19;25.50;1.00
4183;DHT22;2105;52.300;9.182;2023-08-20T08:36:46;25.60;1.00
4183;DHT22;2105;52.300;9.182;2023-08-20T08:39:14;25.70;1.00
4183;DHT22;2105;52.300;9.182;2023-08-20T08:41:41;25.70;1.00
4183;DHT22;2105;52.300;9.182;2023-08-20T08:44:09;25.70;1.00
4183;DHT22;2105;52.300;9.182;2023-08-20T08:46:36;25.60;1.00
4183;DHT22;2105;52.300;9.182;2023-08-20T08:49:04;25.60;1.00
4183;DHT22;2105;52.300;9.182;2023-08-20T08:51:31;25.60;1.00
4183;DHT22;2105;52.300;9.182;2023-08-20T08:54:00;25.50;1.00
4183;DHT22;2105;52.300;9.182;2023-08-20T08:56:29;25.50;1.00
4183;DHT22;2105;52.300;9.182;2023-08-20T08:58:55;25.50;1.00
4183;DHT22;2105;52.300;9.182;2023-08-20T09:01:22;25.70;1.00
4183;DHT22;2105;52.300;9.182;2023-08-20T09:03:49;25.80;1.00
4183;DHT22;2105;52.300;9.182;2023-08-20T09:06:16;26.20;1.00
4183;DHT22;2105;52.300;9.182;2023-08-20T09:08:42;26.40;1.00
4183;DHT22;2105;52.300;9.182;2023-08-20T09:11:09;26.70;1.00
4183;DHT22;2105;52.300;9.182;2023-08-20T09:13:39;27.10;1.00
4183;DHT22;2105;52.300;9.182;2023-08-20T09:16:07;27.20;1.00
4183;DHT22;2105;52.300;9.182;2023-08-20T09:18:38;27.30;1.00
4183;DHT22;2105;52.300;9.182;2023-08-20T09:21:06;27.80;99.90
4183;DHT22;2105;52.300;9.182;2023-08-20T09:23:34;28.20;1.00
4183;DHT22;2105;52.300;9.182;2023-08-20T09:26:02;28.50;99.90
4183;DHT22;2105;52.300;9.182;2023-08-20T09:28:29;28.40;99.90
4183;DHT22;2105;52.300;9.182;2023-08-20T09:30:58;28.50;99.90
4183;DHT22;2105;52.300;9.182;2023-08-20T09:33:27;28.60;99.90
4183;DHT22;2105;52.300;9.182;2023-08-20T09:35:54;28.40;99.90
4183;DHT22;2105;52.300;9.182;2023-08-20T09:38:22;28.50;99.90
4183;DHT22;2105;52.300;9.182;2023-08-20T09:40:50;28.50;99.90
4183;DHT22;2105;52.300;9.182;2023-08-20T09:43:18;28.50;99.90
4183;DHT22;2105;52.300;9.182;2023-08-20T09:45:46;28.60;99.90
4183;DHT22;2105;52.300;9.182;2023-08-20T09:48:17;28.60;99.90
4183;DHT22;2105;52.300;9.182;2023-08-20T09:50:46;28.50;99.90
4183;DHT22;2105;52.300;9.182;2023-08-20T09:53:20;28.80;99.90
4183;DHT22;2105;52.300;9.182;2023-08-20T09:55:50;28.90;99.90
4183;DHT22;2105;52.300;9.182;2023-08-20T09:58:17;29.00;99.90
4183;DHT22;2105;52.300;9.182;2023-08-20T10:00:47;29.00;99.90
4183;DHT22;2105;52.300;9.182;2023-08-20T10:03:16;29.00;99.90
4183;DHT22;2105;52.300;9.182;2023-08-20T10:05:45;29.00;99.90
4183;DHT22;2105;52.300;9.182;2023-08-20T10:08:12;29.20;99.90
4183;DHT22;2105;52.300;9.182;2023-08-20T10:10:39;29.40;99.90
4183;DHT22;2105;52.300;9.182;2023-08-20T10:13:06;29.50;99.90
4183;DHT22;2105;52.300;9.182;2023-08-20T10:15:33;29.10;99.90
4183;DHT22;2105;52.300;9.182;2023-08-20T10:18:02;29.20;99.90
4183;DHT22;2105;52.300;9.182;2023-08-20T10:20:31;29.50;99.90
4183;DHT22;2105;52.300;9.182;2023-08-20T10:23:00;29.60;99.90
4183;DHT22;2105;52.300;9.182;2023-08-20T10:25:29;29.60;99.90
4183;DHT22;2105;52.300;9.182;2023-08-20T10:28:12;29.70;99.90
4183;DHT22;2105;52.300;9.182;2023-08-20T10:31:03;29.80;99.90
4183;DHT22;2105;52.300;9.182;2023-08-20T10:33:30;29.70;99.90
4183;DHT22;2105;52.300;9.182;2023-08-20T10:36:07;29.60;99.90
4183;DHT22;2105;52.300;9.182;2023-08-20T10:38:36;29.60;99.90
4183;DHT22;2105;52.300;9.182;2023-08-20T10:41:06;29.70;99.90
4183;DHT22;2105;52.300;9.182;2023-08-20T10:43:34;29.70;99.90
4183;DHT22;2105;52.300;9.182;2023-08-20T10:46:13;30.00;99.90
4183;DHT22;2105;52.300;9.182;2023-08-20T10:48:40;30.30;99.90
4183;DHT22;2105;52.300;9.182;2023-08-20T10:51:10;29.90;99.90
4183;DHT22;2105;52.300;9.182;2023-08-20T10:53:37;29.80;99.90
4183;DHT22;2105;52.300;9.182;2023-08-20T10:56:08;30.00;99.90
4183;DHT22;2105;52.300;9.182;2023-08-20T10:58:35;30.10;99.90
4183;DHT22;2105;52.300;9.182;2023-08-20T11:01:18;30.20;99.90
4183;DHT22;2105;52.300;9.182;2023-08-20T11:03:46;30.30;99.90
4183;DHT22;2105;52.300;9.182;2023-08-20T11:06:15;30.40;99.90
4183;DHT22;2105;52.300;9.182;2023-08-20T11:08:43;30.10;99.90
4183;DHT22;2105;52.300;9.182;2023-08-20T11:11:10;29.90;99.90
4183;DHT22;2105;52.300;9.182;2023-08-20T11:13:37;30.00;99.90
4183;DHT22;2105;52.300;9.182;2023-08-20T11:16:05;30.20;99.90
4183;DHT22;2105;52.300;9.182;2023-08-20T11:18:33;30.40;99.90
4183;DHT22;2105;52.300;9.182;2023-08-20T11:21:00;30.70;99.90
4183;DHT22;2105;52.300;9.182;2023-08-20T11:23:29;30.80;99.90
4183;DHT22;2105;52.300;9.182;2023-08-20T11:25:56;30.70;99.90
4183;DHT22;2105;52.300;9.182;2023-08-20T11:28:25;30.80;99.90
4183;DHT22;2105;52.300;9.182;2023-08-20T11:30:53;30.80;99.90
4183;DHT22;2105;52.300;9.182;2023-08-20T11:33:21;30.90;99.90
4183;DHT22;2105;52.300;9.182;2023-08-20T11:35:48;31.00;99.90
4183;DHT22;2105;52.300;9.182;2023-08-20T11:38:14;31.00;99.90
4183;DHT22;2105;52.300;9.182;2023-08-20T11:40:42;31.30;99.90
4183;DHT22;2105;52.300;9.182;2023-08-20T11:43:10;31.40;99.90
4183;DHT22;2105;52.300;9.182;2023-08-20T11:45:44;31.50;99.90
4183;DHT22;2105;52.300;9.182;2023-08-20T11:48:11;31.40;99.90
4183;DHT22;2105;52.300;9.182;2023-08-20T11:50:38;31.40;99.90
4183;DHT22;2105;52.300;9.182;2023-08-20T11:53:06;31.60;99.90
4183;DHT22;2105;52.300;9.182;2023-08-20T11:55:33;31.30;99.90
4183;DHT22;2105;52.300;9.182;2023-08-20T11:58:01;31.20;99.90
4183;DHT22;2105;52.300;9.182;2023-08-20T12:00:31;31.40;99.90
4183;DHT22;2105;52.300;9.182;2023-08-20T12:02:58;31.00;99.90
4183;DHT22;2105;52.300;9.182;2023-08-20T12:05:28;30.40;99.90
4183;DHT22;2105;52.300;9.182;2023-08-20T12:07:56;30.40;99.90
4183;DHT22;2105;52.300;9.182;2023-08-20T12:10:24;30.40;99.90
4183;DHT22;2105;52.300;9.182;2023-08-20T12:12:51;30.40;99.90
4183;DHT22;2105;52.300;9.182;2023-08-20T12:15:20;30.90;99.90
4183;DHT22;2105;52.300;9.182;2023-08-20T12:17:57;30.90;99.90
4183;DHT22;2105;52.300;9.182;2023-08-20T12:20:27;31.30;99.90
4183;DHT22;2105;52.300;9.182;2023-08-20T12:22:54;31.50;99.90
4183;DHT22;2105;52.300;9.182;2023-08-20T12:25:21;31.70;99.90
4183;DHT22;2105;52.300;9.182;2023-08-20T12:27:48;31.90;99.90
4183;DHT22;2105;52.300;9.182;2023-08-20T12:30:15;32.00;99.90
4183;DHT22;2105;52.300;9.182;2023-08-20T12:32:43;32.10;99.90
4183;DHT22;2105;52.300;9.182;2023-08-20T12:35:10;32.00;99.90
4183;DHT22;2105;52.300;9.182;2023-08-20T12:37:36;32.10;99.90
4183;DHT22;2105;52.300;9.182;2023-08-20T12:40:04;32.00;99.90
4183;DHT22;2105;52.300;9.182;2023-08-20T12:42:36;31.60;99.90
4183;DHT22;2105;52.300;9.182;2023-08-20T12:45:04;31.50;99.90
4183;DHT22;2105;52.300;9.182;2023-08-20T12:47:30;31.70;99.90
4183;DHT22;2105;52.300;9.182;2023-08-20T12:49:59;32.00;99.90
4183;DHT22;2105;52.300;9.182;2023-08-20T12:52:26;31.90;99.90
4183;DHT22;2105;52.300;9.182;2023-08-20T12:54:53;31.20;99.90
4183;DHT22;2105;52.300;9.182;2023-08-20T12:57:20;30.60;99.90
4183;DHT22;2105;52.300;9.182;2023-08-20T12:59:46;30.70;99.90
4183;DHT22;2105;52.300;9.182;2023-08-20T13:02:13;31.10;99.90
4183;DHT22;2105;52.300;9.182;2023-08-20T13:04:41;31.40;99.90
4183;DHT22;2105;52.300;9.182;2023-08-20T13:07:11;31.40;99.90
4183;DHT22;2105;52.300;9.182;2023-08-20T13:09:39;31.40;99.90
4183;DHT22;2105;52.300;9.182;2023-08-20T13:12:07;31.20;99.90
4183;DHT22;2105;52.300;9.182;2023-08-20T13:14:38;30.90;99.90
4183;DHT22;2105;52.300;9.182;2023-08-20T13:17:05;30.70;99.90
4183;DHT22;2105;52.300;9.182;2023-08-20T13:19:33;30.80;99.90
4183;DHT22;2105;52.300;9.182;2023-08-20T13:21:59;30.80;99.90
4183;DHT22;2105;52.300;9.182;2023-08-20T13:24:27;30.60;99.90
4183;DHT22;2105;52.300;9.182;2023-08-20T13:26:54;30.50;99.90
4183;DHT22;2105;52.300;9.182;2023-08-20T13:29:21;30.20;99.90
4183;DHT22;2105;52.300;9.182;2023-08-20T13:31:47;30.00;99.90
4183;DHT22;2105;52.300;9.182;2023-08-20T13:34:14;30.00;99.90
4183;DHT22;2105;52.300;9.182;2023-08-20T13:36:41;30.00;99.90
4183;DHT22;2105;52.300;9.182;2023-08-20T13:39:08;30.30;99.90
4183;DHT22;2105;52.300;9.182;2023-08-20T13:41:36;30.60;99.90
4183;DHT22;2105;52.300;9.182;2023-08-20T13:44:03;30.90;99.90
4183;DHT22;2105;52.300;9.182;2023-08-20T13:46:30;31.20;99.90
4183;DHT22;2105;52.300;9.182;2023-08-20T13:48:57;31.40;99.90
4183;DHT22;2105;52.300;9.182;2023-08-20T13:51:24;31.50;99.90
4183;DHT22;2105;52.300;9.182;2023-08-20T13:53:51;31.70;99.90
4183;DHT22;2105;52.300;9.182;2023-08-20T13:56:17;31.70;99.90
4183;DHT22;2105;52.300;9.182;2023-08-20T13:58:45;31.60;99.90
4183;DHT22;2105;52.300;9.182;2023-08-20T14:01:12;31.40;99.90
4183;DHT22;2105;52.300;9.182;2023-08-20T14:03:39;31.00;99.90
4183;DHT22;2105;52.300;9.182;2023-08-20T14:06:06;30.90;99.90
4183;DHT22;2105;52.300;9.182;2023-08-20T14:08:32;30.90;99.90
4183;DHT22;2105;52.300;9.182;2023-08-20T14:10:59;30.90;99.90
4183;DHT22;2105;52.300;9.182;2023-08-20T14:13:26;31.10;99.90
4183;DHT22;2105;52.300;9.182;2023-08-20T14:15:54;31.20;99.90
4183;DHT22;2105;52.300;9.182;2023-08-20T14:18:21;31.50;99.90
4183;DHT22;2105;52.300;9.182;2023-08-20T14:20:48;31.50;99.90
4183;DHT22;2105;52.300;9.182;2023-08-20T14:23:15;31.50;99.90
4183;DHT22;2105;52.300;9.182;2023-08-20T14:25:42;31.60;99.90
4183;DHT22;2105;52.300;9.182;2023-08-20T14:28:09;31.40;99.90
4183;DHT22;2105;52.300;9.182;2023-08-20T14:30:36;31.20;99.90
4183;DHT22;2105;52.300;9.182;2023-08-20T14:33:05;31.40;99.90
4183;DHT22;2105;52.300;9.182;2023-08-20T14:35:33;30.90;99.90
4183;DHT22;2105;52.300;9.182;2023-08-20T14:37:59;30.80;99.90
4183;DHT22;2105;52.300;9.182;2023-08-20T14:40:26;31.00;99.90
4183;DHT22;2105;52.300;9.182;2023-08-20T14:42:53;31.10;99.90
4183;DHT22;2105;52.300;9.182;2023-08-20T14:45:19;31.10;99.90
4183;DHT22;2105;52.300;9.182;2023-08-20T14:47:46;31.10;99.90
4183;DHT22;2105;52.300;9.182;2023-08-20T14:50:14;31.10;99.90
4183;DHT22;2105;52.300;9.182;2023-08-20T14:52:41;31.00;99.90
4183;DHT22;2105;52.300;9.182;2023-08-20T14:55:08;31.10;99.90
4183;DHT22;2105;52.300;9.182;2023-08-20T14:57:35;31.30;99.90
4183;DHT22;2105;52.300;9.182;2023-08-20T15:00:04;31.30;99.90
4183;DHT22;2105;52.300;9.182;2023-08-20T15:02:33;31.40;99.90
4183;DHT22;2105;52.300;9.182;2023-08-20T15:05:00;31.20;99.90
4183;DHT22;2105;52.300;9.182;2023-08-20T15:07:28;31.00;99.90
4183;DHT22;2105;52.300;9.182;2023-08-20T15:09:56;30.70;99.90
4183;DHT22;2105;52.300;9.182;2023-08-20T15:12:22;30.50;99.90
4183;DHT22;2105;52.300;9.182;2023-08-20T15:14:49;30.40;99.90
4183;DHT22;2105;52.300;9.182;2023-08-20T15:17:16;30.50;99.90
4183;DHT22;2105;52.300;9.182;2023-08-20T15:19:43;30.60;99.90
4183;DHT22;2105;52.300;9.182;2023-08-20T15:22:10;30.70;99.90
4183;DHT22;2105;52.300;9.182;2023-08-20T15:24:38;30.60;99.90
4183;DHT22;2105;52.300;9.182;2023-08-20T15:27:05;30.50;99.90
4183;DHT22;2105;52.300;9.182;2023-08-20T15:29:32;30.40;99.90
4183;DHT22;2105;52.300;9.182;2023-08-20T15:31:59;30.20;99.90
4183;DHT22;2105;52.300;9.182;2023-08-20T15:34:25;30.20;99.90
4183;DHT22;2105;52.300;9.182;2023-08-20T15:36:52;30.00;99.90
4183;DHT22;2105;52.300;9.182;2023-08-20T15:39:19;29.80;99.90
4183;DHT22;2105;52.300;9.182;2023-08-20T15:41:48;29.70;99.90
4183;DHT22;2105;52.300;9.182;2023-08-20T15:44:15;29.60;99.90
4183;DHT22;2105;52.300;9.182;2023-08-20T15:46:41;29.40;99.90
4183;DHT22;2105;52.300;9.182;2023-08-20T15:49:08;29.30;99.90
4183;DHT22;2105;52.300;9.182;2023-08-20T15:51:35;29.20;99.90
4183;DHT22;2105;52.300;9.182;2023-08-20T15:54:02;29.20;99.90
4183;DHT22;2105;52.300;9.182;2023-08-20T15:56:29;29.20;99.90
4183;DHT22;2105;52.300;9.182;2023-08-20T15:58:57;29.20;99.90
4183;DHT22;2105;52.300;9.182;2023-08-20T16:01:24;29.20;99.90
4183;DHT22;2105;52.300;9.182;2023-08-20T16:03:53;29.10;99.90
4183;DHT22;2105;52.300;9.182;2023-08-20T16:06:20;29.00;99.90